createdAt,value
2018-10-07T00:01:04.490Z,12.20
2018-10-07T00:03:32.982Z,12.20
2018-10-07T00:06:01.467Z,12.20
2018-10-07T00:08:29.942Z,12.20
2018-10-07T00:10:58.431Z,12.20
2018-10-07T00:13:26.878Z,12.20
2018-10-07T00:15:55.340Z,12.10
2018-10-07T00:18:23.801Z,12.10
2018-10-07T00:20:52.275Z,12.00
2018-10-07T00:23:20.791Z,12.00
2018-10-07T00:25:49.319Z,11.90
2018-10-07T00:28:17.806Z,11.90
2018-10-07T00:30:46.269Z,11.90
2018-10-07T00:33:14.754Z,11.90
2018-10-07T00:35:43.240Z,11.80
2018-10-07T00:38:11.711Z,11.80
2018-10-07T00:40:40.195Z,11.80
2018-10-07T00:43:08.666Z,11.80
2018-10-07T00:45:37.182Z,11.80
2018-10-07T00:48:05.950Z,11.70
2018-10-07T00:50:34.435Z,11.80
2018-10-07T00:53:02.906Z,11.70
2018-10-07T00:55:31.571Z,11.80
2018-10-07T00:58:00.084Z,11.80
2018-10-07T01:00:28.575Z,11.90
2018-10-07T01:02:57.072Z,11.90
2018-10-07T01:05:25.578Z,11.90
2018-10-07T01:07:54.302Z,12.00
2018-10-07T01:10:22.787Z,12.00
2018-10-07T01:12:51.264Z,12.10
2018-10-07T01:15:19.745Z,12.10
2018-10-07T01:17:48.206Z,12.10
2018-10-07T01:20:16.791Z,12.20
2018-10-07T01:22:45.242Z,12.20
2018-10-07T01:25:13.710Z,12.20
2018-10-07T01:27:42.188Z,12.30
2018-10-07T01:30:10.962Z,12.30
2018-10-07T01:32:39.411Z,12.20
2018-10-07T01:35:07.867Z,12.20
2018-10-07T01:37:36.346Z,12.20
2018-10-07T01:40:04.878Z,12.20
2018-10-07T01:42:33.334Z,12.20
2018-10-07T01:45:01.810Z,12.10
2018-10-07T01:47:30.297Z,12.10
2018-10-07T01:49:58.786Z,12.10
2018-10-07T01:52:27.259Z,12.00
2018-10-07T01:54:55.714Z,12.00
2018-10-07T01:57:24.165Z,12.00
2018-10-07T01:59:52.631Z,12.00
2018-10-07T02:02:21.098Z,12.00
2018-10-07T02:04:49.566Z,12.00
2018-10-07T02:07:18.051Z,12.00
2018-10-07T02:09:46.518Z,11.90
2018-10-07T02:12:15.074Z,11.90
2018-10-07T02:14:43.563Z,12.00
2018-10-07T02:17:12.035Z,11.90
2018-10-07T02:19:40.538Z,11.90
2018-10-07T02:22:08.995Z,11.90
2018-10-07T02:24:37.458Z,12.00
2018-10-07T02:27:05.943Z,12.00
2018-10-07T02:29:34.418Z,12.00
2018-10-07T02:32:02.885Z,12.00
2018-10-07T02:34:31.386Z,12.00
2018-10-07T02:36:59.863Z,12.00
2018-10-07T02:39:28.340Z,12.10
2018-10-07T02:41:56.810Z,12.10
2018-10-07T02:44:25.288Z,12.20
2018-10-07T02:46:53.742Z,12.20
2018-10-07T02:49:22.219Z,12.20
2018-10-07T02:51:50.784Z,12.20
2018-10-07T02:54:19.306Z,12.20
2018-10-07T02:56:47.811Z,12.20
2018-10-07T02:59:16.871Z,12.20
2018-10-07T03:01:45.355Z,12.10
2018-10-07T03:04:13.835Z,12.10
2018-10-07T03:06:42.316Z,12.10
2018-10-07T03:09:11.319Z,12.10
2018-10-07T03:11:40.103Z,12.10
2018-10-07T03:14:08.591Z,12.10
2018-10-07T03:16:37.103Z,12.10
2018-10-07T03:19:05.611Z,12.00
2018-10-07T03:21:34.083Z,12.00
2018-10-07T03:24:02.542Z,12.00
2018-10-07T03:26:31.026Z,11.90
2018-10-07T03:28:59.517Z,11.90
2018-10-07T03:31:27.990Z,11.90
2018-10-07T03:33:56.471Z,11.90
2018-10-07T03:36:24.930Z,11.90
2018-10-07T03:38:53.527Z,12.00
2018-10-07T03:41:22.051Z,12.00
2018-10-07T03:43:50.519Z,12.00
2018-10-07T03:46:18.983Z,12.00
2018-10-07T03:48:47.449Z,12.00
2018-10-07T03:51:15.926Z,12.10
2018-10-07T03:53:44.370Z,12.10
2018-10-07T03:56:12.835Z,12.10
2018-10-07T03:58:41.347Z,12.10
2018-10-07T04:01:09.843Z,12.10
2018-10-07T04:03:38.307Z,12.10
2018-10-07T04:06:06.908Z,12.00
2018-10-07T04:08:35.391Z,12.00
2018-10-07T04:11:03.863Z,12.00
2018-10-07T04:13:32.383Z,11.90
2018-10-07T04:16:00.843Z,11.90
2018-10-07T04:18:29.315Z,11.90
2018-10-07T04:20:57.783Z,11.90
2018-10-07T04:23:26.258Z,11.80
2018-10-07T04:25:54.718Z,11.80
2018-10-07T04:28:23.228Z,11.90
2018-10-07T04:30:51.690Z,11.90
2018-10-07T04:33:20.170Z,11.90
2018-10-07T04:35:48.643Z,11.90
2018-10-07T04:38:17.110Z,11.90
2018-10-07T04:40:45.682Z,11.90
2018-10-07T04:43:14.150Z,11.90
2018-10-07T04:45:42.611Z,11.90
2018-10-07T04:48:11.080Z,11.90
2018-10-07T04:50:39.535Z,12.00
2018-10-07T04:53:07.991Z,11.90
2018-10-07T04:55:36.511Z,11.90
2018-10-07T04:58:04.973Z,11.90
2018-10-07T05:00:33.587Z,11.90
2018-10-07T05:03:02.055Z,11.90
2018-10-07T05:05:30.595Z,11.90
2018-10-07T05:07:59.134Z,11.90
2018-10-07T05:11:03.909Z,11.90
2018-10-07T05:13:49.331Z,11.90
2018-10-07T05:16:24.480Z,11.90
2018-10-07T05:18:52.987Z,11.90
2018-10-07T05:21:21.458Z,11.90
2018-10-07T05:23:49.943Z,11.90
2018-10-07T05:26:18.474Z,11.90
2018-10-07T05:28:46.955Z,11.90
2018-10-07T05:31:15.419Z,11.90
2018-10-07T05:33:43.886Z,12.00
2018-10-07T05:36:12.371Z,12.00
2018-10-07T05:38:50.207Z,12.00
2018-10-07T05:41:18.763Z,12.00
2018-10-07T05:43:47.263Z,12.10
2018-10-07T05:46:15.737Z,12.10
2018-10-07T05:48:44.370Z,12.10
2018-10-07T05:51:12.813Z,12.10
2018-10-07T05:53:41.332Z,12.20
2018-10-07T05:56:09.956Z,12.20
2018-10-07T05:58:39.478Z,12.20
2018-10-07T06:01:11.843Z,12.30
2018-10-07T06:04:51.532Z,12.30
2018-10-07T06:07:20.304Z,12.40
2018-10-07T06:09:48.792Z,12.50
2018-10-07T06:12:17.330Z,12.50
2018-10-07T06:14:57.285Z,12.60
2018-10-07T06:17:26.755Z,12.60
2018-10-07T06:19:55.267Z,12.70
2018-10-07T06:22:24.232Z,12.70
2018-10-07T06:24:52.743Z,12.80
2018-10-07T06:27:21.266Z,12.80
2018-10-07T06:29:49.862Z,12.80
2018-10-07T06:32:18.279Z,12.90
2018-10-07T06:34:46.762Z,12.90
2018-10-07T06:37:15.234Z,13.00
2018-10-07T06:39:43.802Z,13.10
2018-10-07T06:42:12.267Z,13.10
2018-10-07T06:44:40.814Z,13.20
2018-10-07T06:47:09.330Z,13.30
2018-10-07T06:49:37.799Z,13.20
2018-10-07T06:52:06.322Z,13.20
2018-10-07T06:54:34.819Z,13.30
2018-10-07T06:57:03.317Z,13.40
2018-10-07T06:59:31.834Z,13.50
2018-10-07T07:02:00.323Z,13.50
2018-10-07T07:04:28.803Z,13.60
2018-10-07T07:06:57.262Z,13.80
2018-10-07T07:09:25.738Z,13.90
2018-10-07T07:11:54.219Z,14.10
2018-10-07T07:14:22.691Z,14.20
2018-10-07T07:16:51.159Z,14.30
2018-10-07T07:19:19.651Z,14.40
2018-10-07T07:21:48.159Z,14.50
2018-10-07T07:24:16.618Z,14.50
2018-10-07T07:26:45.079Z,14.60
2018-10-07T07:29:13.559Z,14.60
2018-10-07T07:31:42.034Z,14.80
2018-10-07T07:34:10.796Z,14.70
2018-10-07T07:36:39.306Z,14.90
2018-10-07T07:39:08.430Z,15.00
2018-10-07T07:41:37.001Z,15.10
2018-10-07T07:44:05.519Z,15.10
2018-10-07T07:46:34.023Z,15.20
2018-10-07T07:49:02.498Z,15.40
2018-10-07T07:51:31.099Z,15.50
2018-10-07T07:53:59.615Z,15.50
2018-10-07T07:56:28.098Z,15.60
2018-10-07T07:58:56.551Z,15.60
2018-10-07T08:01:25.038Z,15.70
2018-10-07T08:03:53.499Z,15.70
2018-10-07T08:06:21.978Z,15.80
2018-10-07T08:08:50.538Z,15.90
2018-10-07T08:11:18.986Z,15.90
2018-10-07T08:13:47.451Z,15.80
2018-10-07T08:16:15.911Z,15.80
2018-10-07T08:18:44.383Z,15.90
2018-10-07T08:21:12.898Z,16.00
2018-10-07T08:23:41.395Z,16.10
2018-10-07T08:26:09.851Z,16.00
2018-10-07T08:28:38.314Z,16.10
2018-10-07T08:31:06.782Z,16.00
2018-10-07T08:33:35.314Z,16.10
2018-10-07T08:36:03.831Z,16.10
2018-10-07T08:38:32.354Z,16.10
2018-10-07T08:41:00.867Z,16.10
2018-10-07T08:43:29.338Z,16.20
2018-10-07T08:45:57.795Z,16.20
2018-10-07T08:48:26.259Z,16.30
2018-10-07T08:50:54.743Z,16.50
2018-10-07T08:53:23.198Z,16.70
2018-10-07T08:55:51.714Z,16.80
2018-10-07T08:58:20.155Z,16.90
2018-10-07T09:00:48.617Z,17.00
2018-10-07T09:03:17.078Z,17.20
2018-10-07T09:05:45.539Z,17.20
2018-10-07T09:08:14.002Z,17.40
2018-10-07T09:10:42.468Z,17.70
2018-10-07T09:13:10.935Z,17.90
2018-10-07T09:15:39.402Z,18.00
2018-10-07T09:18:07.858Z,17.80
2018-10-07T09:20:36.345Z,18.10
2018-10-07T09:23:04.814Z,18.10
2018-10-07T09:25:33.376Z,18.10
2018-10-07T09:28:01.935Z,18.10
2018-10-07T09:30:30.694Z,18.20
2018-10-07T09:32:59.275Z,18.20
2018-10-07T09:35:27.758Z,18.30
2018-10-07T09:37:56.230Z,18.20
2018-10-07T09:40:24.722Z,18.10
2018-10-07T09:42:53.175Z,18.00
2018-10-07T09:45:21.690Z,18.00
2018-10-07T09:47:50.476Z,18.00
2018-10-07T09:50:18.945Z,18.00
2018-10-07T09:52:47.404Z,18.00
2018-10-07T09:55:15.891Z,18.00
2018-10-07T09:57:44.346Z,17.90
2018-10-07T10:00:12.848Z,17.90
2018-10-07T10:02:41.350Z,17.70
2018-10-07T10:05:09.960Z,17.80
2018-10-07T10:07:38.446Z,17.70
2018-10-07T10:10:06.959Z,17.80
2018-10-07T10:12:35.416Z,17.80
2018-10-07T10:15:04.205Z,17.70
2018-10-07T10:17:33.311Z,17.70
2018-10-07T10:20:04.438Z,17.80
2018-10-07T10:22:40.622Z,17.80
2018-10-07T10:25:31.506Z,17.90
2018-10-07T10:28:10.855Z,18.10
2018-10-07T10:31:20.479Z,18.30
2018-10-07T10:34:04.786Z,18.30
2018-10-07T10:36:39.321Z,18.40
2018-10-07T10:39:21.269Z,18.50
2018-10-07T10:42:08.915Z,18.60
2018-10-07T10:44:43.203Z,18.60
2018-10-07T10:47:16.582Z,18.60
2018-10-07T10:50:27.374Z,18.70
2018-10-07T10:54:07.631Z,18.60
2018-10-07T10:56:40.497Z,18.60
2018-10-07T10:59:11.735Z,18.70
2018-10-07T11:01:45.476Z,18.60
2018-10-07T11:04:20.046Z,18.80
2018-10-07T11:07:00.849Z,18.90
2018-10-07T11:10:49.230Z,18.90
2018-10-07T11:13:30.028Z,19.00
2018-10-07T11:19:16.921Z,19.10
2018-10-07T11:22:55.947Z,19.10
2018-10-07T11:25:33.723Z,19.00
2018-10-07T11:28:13.386Z,18.90
2018-10-07T11:32:57.255Z,19.00
2018-10-07T11:35:37.402Z,19.00
2018-10-07T11:38:14.266Z,18.90
2018-10-07T11:41:56.543Z,18.80
2018-10-07T11:45:37.492Z,18.80
2018-10-07T11:48:13.319Z,18.70
2018-10-07T11:51:04.145Z,18.60
2018-10-07T11:53:38.070Z,18.60
2018-10-07T11:56:06.536Z,18.50
2018-10-07T11:58:34.999Z,18.50
2018-10-07T12:01:03.462Z,18.50
2018-10-07T12:03:31.983Z,18.60
2018-10-07T12:06:00.457Z,18.60
2018-10-07T12:08:28.958Z,18.70
2018-10-07T12:10:57.427Z,18.70
2018-10-07T12:13:25.891Z,18.70
2018-10-07T12:15:54.351Z,18.80
2018-10-07T12:18:22.818Z,19.00
2018-10-07T12:20:51.310Z,19.00
2018-10-07T12:23:19.799Z,19.20
2018-10-07T12:25:48.270Z,19.40
2018-10-07T12:28:16.743Z,19.60
2018-10-07T12:30:45.219Z,19.70
2018-10-07T12:33:13.689Z,20.00
2018-10-07T12:35:42.155Z,20.00
2018-10-07T12:38:10.636Z,20.10
2018-10-07T12:40:39.097Z,20.40
2018-10-07T12:43:07.634Z,20.40
2018-10-07T12:45:36.103Z,20.50
2018-10-07T12:48:04.574Z,20.40
2018-10-07T12:50:33.087Z,20.30
2018-10-07T12:53:02.835Z,20.30
2018-10-07T12:55:31.291Z,20.50
2018-10-07T12:57:59.759Z,20.60
2018-10-07T13:00:28.251Z,20.60
2018-10-07T13:02:56.731Z,20.60
2018-10-07T13:05:25.222Z,20.60
2018-10-07T13:07:53.799Z,20.60
2018-10-07T13:10:22.256Z,20.60
2018-10-07T13:12:50.743Z,20.60
2018-10-07T13:15:19.210Z,20.50
2018-10-07T13:17:47.673Z,20.40
2018-10-07T13:20:16.142Z,20.40
2018-10-07T13:22:44.607Z,20.40
2018-10-07T13:25:13.113Z,20.50
2018-10-07T13:27:41.618Z,20.60
2018-10-07T13:30:10.214Z,20.50
2018-10-07T13:32:38.667Z,20.50
2018-10-07T13:35:07.675Z,20.40
2018-10-07T13:37:36.151Z,20.30
2018-10-07T13:40:05.244Z,20.30
2018-10-07T13:42:33.767Z,20.30
2018-10-07T13:45:02.244Z,20.30
2018-10-07T13:47:30.726Z,20.40
2018-10-07T13:49:59.194Z,20.40
2018-10-07T13:52:27.650Z,20.40
2018-10-07T13:54:56.126Z,20.30
2018-10-07T13:57:24.580Z,20.40
2018-10-07T13:59:53.047Z,20.40
2018-10-07T14:02:21.498Z,20.30
2018-10-07T14:04:49.974Z,20.40
2018-10-07T14:07:18.430Z,20.30
2018-10-07T14:09:46.890Z,20.30
2018-10-07T14:12:15.359Z,20.30
2018-10-07T14:14:43.837Z,20.40
2018-10-07T14:17:12.319Z,20.40
2018-10-07T14:19:40.786Z,20.30
2018-10-07T14:22:09.275Z,20.20
2018-10-07T14:24:37.745Z,20.10
2018-10-07T14:27:06.345Z,20.20
2018-10-07T14:29:34.813Z,20.10
2018-10-07T14:32:03.294Z,19.90
2018-10-07T14:34:31.782Z,20.00
2018-10-07T14:37:00.356Z,19.90
2018-10-07T14:39:28.831Z,19.90
2018-10-07T14:41:57.320Z,19.80
2018-10-07T14:44:25.762Z,19.70
2018-10-07T14:46:54.219Z,19.70
2018-10-07T14:49:22.832Z,19.60
2018-10-07T14:51:51.203Z,19.60
2018-10-07T14:54:19.689Z,19.60
2018-10-07T14:56:48.174Z,19.40
2018-10-07T14:59:16.634Z,19.30
2018-10-07T15:01:45.109Z,19.30
2018-10-07T15:04:13.603Z,19.30
2018-10-07T15:06:42.081Z,19.20
2018-10-07T15:09:11.696Z,19.10
2018-10-07T15:11:40.226Z,19.10
2018-10-07T15:14:09.086Z,19.00
2018-10-07T15:16:37.566Z,19.00
2018-10-07T15:19:06.043Z,18.80
2018-10-07T15:21:34.510Z,18.80
2018-10-07T15:24:03.015Z,18.70
2018-10-07T15:26:31.542Z,18.70
2018-10-07T15:29:00.270Z,18.50
2018-10-07T15:31:28.738Z,18.50
2018-10-07T15:33:57.212Z,18.40
2018-10-07T15:36:25.811Z,18.30
2018-10-07T15:38:54.283Z,18.20
2018-10-07T15:41:22.743Z,18.10
2018-10-07T15:43:51.226Z,18.10
2018-10-07T15:46:19.704Z,18.00
2018-10-07T15:48:48.165Z,17.90
2018-10-07T15:51:16.659Z,17.80
2018-10-07T15:53:45.124Z,17.70
2018-10-07T15:56:13.594Z,17.50
2018-10-07T15:58:42.090Z,17.40
2018-10-07T16:01:10.543Z,17.40
2018-10-07T16:03:39.033Z,17.30
2018-10-07T16:06:07.699Z,17.20
2018-10-07T16:08:36.166Z,17.10
2018-10-07T16:11:04.684Z,16.90
2018-10-07T16:13:33.215Z,16.80
2018-10-07T16:16:01.679Z,16.70
2018-10-07T16:18:30.172Z,16.60
2018-10-07T16:20:58.685Z,16.50
2018-10-07T16:23:27.192Z,16.50
2018-10-07T16:25:55.666Z,16.40
2018-10-07T16:28:24.140Z,16.40
2018-10-07T16:30:52.612Z,16.40
2018-10-07T16:33:21.191Z,16.30
2018-10-07T16:35:49.674Z,16.30
2018-10-07T16:38:18.150Z,16.30
2018-10-07T16:40:46.622Z,16.20
2018-10-07T16:43:15.082Z,16.20
2018-10-07T16:45:43.595Z,16.10
2018-10-07T16:48:12.050Z,16.10
2018-10-07T16:50:40.515Z,16.00
2018-10-07T16:53:08.966Z,16.00
2018-10-07T16:55:37.422Z,16.00
2018-10-07T16:58:05.989Z,16.00
2018-10-07T17:00:34.449Z,16.00
2018-10-07T17:03:02.975Z,16.00
2018-10-07T17:05:31.546Z,16.00
2018-10-07T17:08:00.022Z,16.00
2018-10-07T17:10:28.503Z,16.00
2018-10-07T17:12:57.105Z,16.00
2018-10-07T17:15:25.587Z,16.00
2018-10-07T17:17:54.023Z,16.00
2018-10-07T17:20:22.491Z,16.00
2018-10-07T17:22:50.999Z,15.90
2018-10-07T17:25:19.470Z,15.90
2018-10-07T17:27:47.951Z,15.80
2018-10-07T17:30:16.489Z,15.80
2018-10-07T17:32:44.958Z,15.80
2018-10-07T17:35:13.445Z,15.70
2018-10-07T17:37:41.943Z,15.70
2018-10-07T17:40:10.499Z,15.80
2018-10-07T17:42:39.004Z,15.80
2018-10-07T17:45:07.555Z,16.00
2018-10-07T17:47:36.042Z,16.00
2018-10-07T17:50:04.752Z,16.10
2018-10-07T17:52:33.267Z,16.10
2018-10-07T17:55:01.794Z,16.20
2018-10-07T17:57:30.204Z,16.30
2018-10-07T17:59:58.745Z,16.20
2018-10-07T18:02:27.222Z,16.20
2018-10-07T18:04:55.687Z,16.00
2018-10-07T18:07:24.178Z,15.80
2018-10-07T18:09:52.755Z,15.60
2018-10-07T18:12:21.226Z,15.40
2018-10-07T18:14:49.733Z,15.20
2018-10-07T18:17:18.202Z,15.10
2018-10-07T18:19:46.678Z,15.00
2018-10-07T18:22:15.142Z,14.80
2018-10-07T18:24:43.624Z,14.60
2018-10-07T18:27:18.586Z,14.60
2018-10-07T18:29:48.579Z,14.50
2018-10-07T18:32:17.075Z,14.40
2018-10-07T18:34:45.592Z,14.40
2018-10-07T18:37:14.026Z,14.30
2018-10-07T18:39:42.548Z,14.20
2018-10-07T18:42:11.023Z,14.10
2018-10-07T18:44:39.479Z,14.10
2018-10-07T18:47:08.039Z,14.10
2018-10-07T18:49:36.514Z,14.10
2018-10-07T18:52:05.002Z,14.00
2018-10-07T18:54:33.529Z,14.00
2018-10-07T18:57:01.975Z,14.00
2018-10-07T18:59:30.453Z,14.00
2018-10-07T19:01:58.988Z,14.00
2018-10-07T19:04:27.459Z,14.00
2018-10-07T19:06:55.970Z,14.00
2018-10-07T19:09:24.422Z,14.00
2018-10-07T19:11:52.889Z,14.00
2018-10-07T19:14:21.374Z,14.00
2018-10-07T19:16:49.802Z,14.10
2018-10-07T19:19:18.295Z,14.10
2018-10-07T19:21:46.762Z,14.10
2018-10-07T19:24:15.217Z,14.10
2018-10-07T19:26:43.758Z,14.10
2018-10-07T19:29:12.238Z,14.10
2018-10-07T19:31:40.711Z,14.00
2018-10-07T19:34:09.195Z,13.90
2018-10-07T19:36:37.646Z,13.90
2018-10-07T19:39:08.534Z,13.90
2018-10-07T19:41:37.079Z,13.90
2018-10-07T19:44:05.640Z,13.90
2018-10-07T19:46:34.473Z,13.90
2018-10-07T19:49:02.923Z,13.90
2018-10-07T19:51:31.398Z,13.90
2018-10-07T19:53:59.888Z,13.90
2018-10-07T19:56:28.370Z,13.90
2018-10-07T19:58:56.855Z,13.90
2018-10-07T20:01:40.087Z,13.90
2018-10-07T20:04:08.558Z,14.00
2018-10-07T20:06:37.035Z,13.90
2018-10-07T20:09:07.499Z,13.90
2018-10-07T20:11:36.011Z,13.90
2018-10-07T20:14:04.478Z,13.90
2018-10-07T20:16:33.003Z,13.90
2018-10-07T20:19:01.502Z,13.90
2018-10-07T20:21:29.978Z,13.90
2018-10-07T20:23:58.431Z,13.90
2018-10-07T20:26:26.912Z,13.90
2018-10-07T20:28:55.379Z,13.90
2018-10-07T20:31:23.855Z,13.90
2018-10-07T20:33:52.575Z,13.90
2018-10-07T20:36:21.018Z,13.90
2018-10-07T20:38:49.478Z,13.80
2018-10-07T20:41:17.943Z,13.80
2018-10-07T20:43:46.417Z,13.80
2018-10-07T20:46:14.888Z,13.90
2018-10-07T20:48:43.354Z,13.90
2018-10-07T20:51:11.809Z,13.90
2018-10-07T20:53:41.115Z,13.90
2018-10-07T20:56:09.590Z,13.90
2018-10-07T20:58:38.054Z,13.90
2018-10-07T21:01:06.522Z,13.80
2018-10-07T21:03:34.987Z,13.80
2018-10-07T21:06:03.475Z,13.80
2018-10-07T21:08:32.009Z,13.90
2018-10-07T21:11:00.476Z,13.80
2018-10-07T21:13:28.939Z,13.90
2018-10-07T21:15:57.399Z,13.80
2018-10-07T21:18:25.859Z,13.80
2018-10-07T21:20:54.523Z,13.80
2018-10-07T21:23:22.979Z,13.80
2018-10-07T21:25:51.438Z,13.80
2018-10-07T21:28:19.902Z,13.80
2018-10-07T21:30:48.381Z,13.80
2018-10-07T21:33:16.866Z,13.70
2018-10-07T21:35:45.326Z,13.70
2018-10-07T21:38:13.789Z,13.70
2018-10-07T21:40:42.261Z,13.60
2018-10-07T21:43:10.735Z,13.60
2018-10-07T21:45:39.203Z,13.60
2018-10-07T21:48:07.674Z,13.50
2018-10-07T21:50:36.147Z,13.50
2018-10-07T21:53:04.619Z,13.50
2018-10-07T21:55:33.183Z,13.50
2018-10-07T21:58:01.687Z,13.40
2018-10-07T22:00:30.164Z,13.40
2018-10-07T22:02:58.647Z,13.40
2018-10-07T22:05:27.195Z,13.40
2018-10-07T22:07:55.646Z,13.30
2018-10-07T22:10:24.106Z,13.30
2018-10-07T22:12:52.567Z,13.20
2018-10-07T22:15:21.030Z,13.20
2018-10-07T22:17:49.486Z,13.10
2018-10-07T22:20:17.954Z,13.10
2018-10-07T22:22:46.414Z,13.10
2018-10-07T22:25:14.865Z,13.10
2018-10-07T22:27:43.358Z,13.00
2018-10-07T22:30:11.837Z,13.00
2018-10-07T22:32:40.287Z,13.00
2018-10-07T22:35:08.779Z,13.00
2018-10-07T22:37:37.234Z,13.00
2018-10-07T22:40:05.702Z,12.90
2018-10-07T22:42:34.176Z,12.90
2018-10-07T22:45:02.639Z,13.00
2018-10-07T22:47:31.202Z,12.90
2018-10-07T22:49:59.678Z,12.90
2018-10-07T22:52:28.151Z,12.90
2018-10-07T22:54:56.619Z,12.90
2018-10-07T22:57:25.147Z,12.90
2018-10-07T22:59:53.622Z,12.80
2018-10-07T23:02:22.085Z,12.90
2018-10-07T23:04:50.558Z,12.90
2018-10-07T23:07:19.035Z,13.00
2018-10-07T23:09:47.502Z,13.00
2018-10-07T23:12:15.963Z,13.00
2018-10-07T23:14:44.433Z,13.00
2018-10-07T23:17:12.891Z,13.00
2018-10-07T23:19:41.358Z,13.10
2018-10-07T23:22:09.827Z,13.10
2018-10-07T23:24:38.283Z,13.10
2018-10-07T23:27:07.042Z,13.10
2018-10-07T23:29:35.498Z,13.10
2018-10-07T23:32:03.996Z,13.10
2018-10-07T23:34:32.507Z,13.10
2018-10-07T23:37:00.979Z,13.10
2018-10-07T23:39:29.426Z,13.10
2018-10-07T23:41:57.883Z,13.00
2018-10-07T23:44:26.338Z,13.00
2018-10-07T23:46:54.822Z,13.00
2018-10-07T23:49:23.291Z,13.00
2018-10-07T23:51:51.871Z,13.00
2018-10-07T23:54:20.234Z,13.00
2018-10-07T23:56:48.695Z,13.00
2018-10-07T23:59:17.362Z,13.00
